Time;durP1;ratioP1;P1;durP2;ratioP2;P2;SDS_P1;SDS_P2;PMS_P1;PMS_P2;Temp;Humidity;BMP_temperature;BMP_pressure;BME280_temperature;BME280_humidity;BME280_pressure;Samples;Min_cycle;Max_cycle;Signal;HPM_P1;HPM_P2
2022/05/01 00:02:05;;;;;;;6.07;4.33;;;;;;;10.66;71.33;97471.28;5068116;28;20698;-90
2022/05/01 00:04:34;;;;;;;5.43;4.17;;;;;;;10.84;71.76;97512.00;5068541;28;20194;-90
2022/05/01 00:07:04;;;;;;;4.50;3.90;;;;;;;11.15;71.68;97556.53;5052077;28;20199;-90
2022/05/01 00:09:31;;;;;;;5.27;4.17;;;;;;;10.77;72.26;97515.75;5068415;28;20209;-90
2022/05/01 00:11:59;;;;;;;4.43;3.60;;;;;;;10.86;71.80;97510.19;5069084;28;20200;-91
2022/05/01 00:14:27;;;;;;;4.83;4.00;;;;;;;10.53;71.51;97519.28;5051294;28;20235;-91
2022/05/01 00:16:55;;;;;;;5.80;3.70;;;;;;;10.28;73.06;97532.25;5085602;28;20190;-90
2022/05/01 00:19:22;;;;;;;5.77;3.80;;;;;;;9.63;74.55;97494.94;5069211;28;20189;-90
2022/05/01 00:22:09;;;;;;;6.13;4.13;;;;;;;9.36;75.64;97494.16;5068167;28;20185;-87
2022/05/01 00:24:36;;;;;;;8.67;4.57;;;;;;;9.27;77.35;97509.97;5068006;28;20193;-90
2022/05/01 00:27:03;;;;;;;5.23;4.37;;;;;;;9.34;78.30;97532.13;5068066;28;20209;-90
2022/05/01 00:29:31;;;;;;;6.03;4.50;;;;;;;9.36;77.36;97535.50;5051718;28;20211;-91
2022/05/01 00:31:58;;;;;;;5.83;4.00;;;;;;;9.35;77.76;97539.00;5051101;28;20189;-91
2022/05/01 00:37:10;;;;;;;8.10;5.10;;;;;;;9.56;77.31;97527.91;5068229;28;20691;-91
2022/05/01 00:39:37;;;;;;;5.73;4.40;;;;;;;9.81;77.12;97554.63;5051165;28;20242;-90
2022/05/01 00:42:05;;;;;;;5.40;4.13;;;;;;;9.92;75.60;97506.84;5067596;28;20189;-90
2022/05/01 00:44:32;;;;;;;5.97;4.13;;;;;;;10.36;75.25;97555.31;5067129;28;20239;-90
2022/05/01 00:46:59;;;;;;;4.70;4.00;;;;;;;10.44;74.05;97529.97;5068189;28;20189;-91
2022/05/01 00:49:28;;;;;;;4.73;4.10;;;;;;;10.38;73.46;97537.97;5067618;28;20276;-89
2022/05/01 00:52:08;;;;;;;8.33;4.37;;;;;;;10.49;73.70;97538.41;5067634;28;20190;-91
2022/05/01 00:54:39;;;;;;;5.07;3.80;;;;;;;10.26;73.69;97541.84;5068113;28;20698;-91
2022/05/01 00:57:07;;;;;;;5.80;4.23;;;;;;;10.43;73.89;97559.34;5082070;28;20204;-89
2022/05/01 00:59:37;;;;;;;6.63;4.73;;;;;;;10.48;73.46;97562.63;5073399;28;20220;-91
2022/05/01 01:02:05;;;;;;;5.87;5.03;;;;;;;10.33;73.34;97543.31;5066843;28;20584;-91
2022/05/01 01:04:33;;;;;;;6.43;4.77;;;;;;;10.26;73.17;97541.00;5051663;28;20729;-92
2022/05/01 01:07:02;;;;;;;6.30;4.80;;;;;;;9.91;73.60;97503.44;5067113;28;20672;-91
2022/05/01 01:09:31;;;;;;;5.70;4.57;;;;;;;10.18;73.61;97563.75;5068129;28;20204;-91
2022/05/01 01:14:44;;;;;;;6.37;4.53;;;;;;;9.32;75.72;97539.09;5050343;28;20220;-91
2022/05/01 01:17:11;;;;;;;6.90;4.83;;;;;;;9.23;76.58;97539.41;5067780;28;20694;-91
2022/05/01 01:19:39;;;;;;;7.77;5.50;;;;;;;9.05;77.18;97542.56;5067088;28;20189;-91
2022/05/01 01:22:08;;;;;;;6.90;5.20;;;;;;;9.28;77.74;97563.34;5051204;28;20593;-90
2022/05/01 01:24:39;;;;;;;5.00;4.43;;;;;;;9.22;78.27;97573.88;5050549;28;20200;-91
2022/05/01 01:27:06;;;;;;;6.93;5.00;;;;;;;9.07;77.84;97579.50;5050898;28;20196;-91
2022/05/01 01:32:25;;;;;;;5.47;4.50;;;;;;;8.87;78.54;97572.41;5067614;28;20220;-91
2022/05/01 01:34:55;;;;;;;6.30;5.00;;;;;;;8.67;79.43;97564.41;5068192;28;20235;-91
2022/05/01 01:37:24;;;;;;;7.40;4.70;;;;;;;8.06;80.07;97518.84;5054708;28;20219;-91
2022/05/01 01:39:52;;;;;;;5.63;4.60;;;;;;;8.09;81.80;97534.25;5081828;28;20340;-91
2022/05/01 01:42:21;;;;;;;7.30;4.90;;;;;;;7.99;81.45;97525.09;5092349;28;20595;-89
2022/05/01 01:44:50;;;;;;;8.20;4.60;;;;;;;8.24;81.17;97569.91;5079984;28;20196;-91
2022/05/01 01:47:18;;;;;;;6.23;4.83;;;;;;;7.76;81.50;97527.44;5078622;28;20196;-92
2022/05/01 01:49:45;;;;;;;7.30;5.30;;;;;;;7.79;81.84;97549.72;5052340;28;20251;-92
2022/05/01 01:52:13;;;;;;;8.23;5.07;;;;;;;7.78;82.70;97553.16;5051393;28;20204;-91
2022/05/01 01:54:42;;;;;;;7.67;4.80;;;;;;;7.39;83.60;97508.66;5050407;28;20217;-91
2022/05/01 01:57:09;;;;;;;6.43;4.70;;;;;;;7.86;83.75;97580.44;5050255;28;20193;-91
2022/05/01 01:59:36;;;;;;;6.80;4.40;;;;;;;7.65;83.92;97536.31;5067056;28;20212;-91
2022/05/01 02:02:03;;;;;;;4.97;4.17;;;;;;;7.50;83.16;97491.19;5066773;28;20197;-90
2022/05/01 02:04:31;;;;;;;6.43;4.90;;;;;;;7.49;83.23;97496.38;5067439;28;20549;-92
2022/05/01 02:06:58;;;;;;;7.87;5.10;;;;;;;7.72;83.32;97507.78;5050373;28;20200;-91
2022/05/01 02:09:25;;;;;;;5.73;4.53;;;;;;;7.72;82.06;97470.84;5067523;28;20204;-91
2022/05/01 02:11:53;;;;;;;6.20;4.03;;;;;;;8.14;80.81;97521.19;5050444;28;20212;-92
2022/05/01 02:14:21;;;;;;;8.47;6.60;;;;;;;7.90;79.64;97457.44;5054605;28;20251;-91
2022/05/01 02:16:48;;;;;;;8.77;6.43;;;;;;;8.49;79.96;97526.22;5054875;28;20227;-92
2022/05/01 02:19:16;;;;;;;8.07;6.90;;;;;;;8.16;79.61;97476.41;5053890;28;20201;-91
2022/05/01 02:21:43;;;;;;;9.47;6.67;;;;;;;8.28;79.14;97469.25;5070595;28;20195;-90
2022/05/01 02:24:12;;;;;;;13.10;7.23;;;;;;;8.92;78.62;97530.94;5053728;28;20193;-91
2022/05/01 02:26:40;;;;;;;12.17;7.27;;;;;;;8.87;77.80;97489.75;5070257;28;20692;-91
2022/05/01 02:29:10;;;;;;;11.40;6.93;;;;;;;9.34;76.18;97518.34;5069763;28;20240;-91
2022/05/01 02:31:44;;;;;;;9.87;6.57;;;;;;;9.63;75.43;97533.72;5070085;28;20225;-91
2022/05/01 02:34:12;;;;;;;7.77;6.20;;;;;;;9.75;74.74;97539.31;5070036;28;20221;-91
2022/05/01 02:36:39;;;;;;;7.20;6.00;;;;;;;9.82;73.87;97525.31;5071626;28;20219;-90
2022/05/01 02:39:06;;;;;;;8.57;6.40;;;;;;;9.80;73.72;97521.91;5070218;28;20177;-90
2022/05/01 02:41:34;;;;;;;7.47;6.17;;;;;;;9.68;73.52;97504.25;5053303;28;20243;-91
2022/05/01 02:44:01;;;;;;;7.77;5.93;;;;;;;9.20;73.93;97415.47;5054011;28;20190;-90
2022/05/01 02:46:28;;;;;;;10.33;6.90;;;;;;;9.57;73.74;97490.84;5069599;28;20251;-91
2022/05/01 02:48:56;;;;;;;9.10;7.20;;;;;;;9.63;74.07;97498.38;5070178;28;20193;-90
2022/05/01 02:51:23;;;;;;;7.83;6.00;;;;;;;9.42;74.02;97447.41;5069937;28;20189;-91
2022/05/01 02:53:50;;;;;;;8.27;6.97;;;;;;;9.75;73.43;97502.25;5071316;28;20203;-90
2022/05/01 02:56:17;;;;;;;9.03;7.37;;;;;;;9.87;72.90;97511.34;5053490;28;20191;-91
2022/05/01 02:58:45;;;;;;;7.53;5.70;;;;;;;9.55;73.11;97478.84;5071225;28;20280;-91
2022/05/01 03:01:13;;;;;;;6.07;5.20;;;;;;;9.59;73.22;97495.94;5059075;28;20189;-89
2022/05/01 03:03:40;;;;;;;5.77;5.17;;;;;;;9.11;74.48;97476.94;5048917;28;20201;-90
2022/05/01 03:06:09;;;;;;;5.73;4.80;;;;;;;9.12;74.69;97494.13;5070463;28;20193;-90
2022/05/01 03:08:35;;;;;;;8.73;5.27;;;;;;;9.19;73.87;97534.38;5071335;28;20173;-90
2022/05/01 03:11:02;;;;;;;5.23;4.73;;;;;;;9.14;74.50;97533.66;5069779;28;20198;-91
2022/05/01 03:13:29;;;;;;;7.77;4.90;;;;;;;8.72;75.01;97499.69;5053140;28;20205;-90
2022/05/01 03:15:57;;;;;;;6.83;5.07;;;;;;;8.41;75.67;97462.84;5069444;28;20223;-91
2022/05/01 03:23:56;;;;;;;6.30;5.00;;;;;;;8.24;76.24;97450.41;5052383;28;20280;-90
2022/05/01 03:26:25;;;;;;;8.67;4.77;;;;;;;8.60;75.28;97476.84;5069389;28;20205;-89
2022/05/01 03:28:52;;;;;;;7.07;4.70;;;;;;;8.64;75.24;97486.19;5070431;28;20181;-91
2022/05/01 03:31:19;;;;;;;8.37;4.43;;;;;;;8.96;75.18;97504.94;5070664;28;20217;-91
2022/05/01 03:33:47;;;;;;;6.30;4.80;;;;;;;9.11;74.30;97529.44;5069321;28;20192;-91
2022/05/01 03:36:15;;;;;;;5.47;4.30;;;;;;;8.99;74.00;97478.16;5069922;28;20193;-91
2022/05/01 03:38:42;;;;;;;6.43;4.70;;;;;;;9.05;73.58;97477.16;5052081;28;20192;-90
2022/05/01 03:41:14;;;;;;;6.23;4.70;;;;;;;9.57;72.88;97521.00;5068897;28;20593;-91
2022/05/01 03:43:41;;;;;;;4.87;4.40;;;;;;;9.79;72.67;97515.03;5052458;28;20197;-89
2022/05/01 03:46:10;;;;;;;5.37;4.80;;;;;;;9.91;71.95;97502.59;5068404;28;20209;-90
2022/05/01 03:48:37;;;;;;;5.30;4.37;;;;;;;9.29;72.01;97420.31;5086321;28;20186;-90
2022/05/01 03:51:04;;;;;;;6.93;4.33;;;;;;;9.70;72.84;97494.69;5070145;28;20818;-92
2022/05/01 03:53:32;;;;;;;5.27;4.50;;;;;;;10.27;71.20;97532.34;5052761;28;20193;-91
2022/05/01 03:55:59;;;;;;;7.80;5.53;;;;;;;9.99;72.25;97541.97;5069093;28;20259;-91
2022/05/01 03:58:29;;;;;;;5.40;4.30;;;;;;;9.51;71.50;97434.19;5069478;28;20197;-94
2022/05/01 04:00:57;;;;;;;4.43;4.03;;;;;;;10.45;70.99;97552.34;5053507;28;20193;-94
2022/05/01 04:03:26;;;;;;;5.53;4.60;;;;;;;9.68;72.92;97500.81;5052803;28;20280;-93
2022/05/01 04:05:53;;;;;;;5.70;4.47;;;;;;;10.17;72.30;97551.69;5054033;28;20596;-96
2022/05/01 04:08:21;;;;;;;7.00;4.33;;;;;;;9.78;72.31;97482.34;5060627;28;20195;-96
2022/05/01 04:10:49;;;;;;;4.50;4.00;;;;;;;10.30;72.09;97506.34;5056315;28;20193;-95
2022/05/01 04:13:17;;;;;;;4.40;3.90;;;;;;;10.35;70.95;97509.59;5056345;28;20204;-95
2022/05/01 04:15:46;;;;;;;5.80;4.63;;;;;;;10.46;71.58;97534.19;5054670;28;20229;-93
2022/05/01 04:18:13;;;;;;;4.73;3.63;;;;;;;10.40;71.46;97524.06;5053964;28;20237;-94
2022/05/01 04:20:41;;;;;;;5.23;3.93;;;;;;;10.05;71.79;97480.50;5073250;28;20189;-94
2022/05/01 04:23:10;;;;;;;6.37;4.17;;;;;;;10.04;72.03;97471.03;5073777;28;20198;-94
2022/05/01 04:25:38;;;;;;;4.90;3.93;;;;;;;10.49;71.74;97517.69;5088972;28;20202;-93
2022/05/01 04:28:11;;;;;;;7.00;4.40;;;;;;;10.41;71.82;97486.06;5077459;28;20231;-94
2022/05/01 04:30:52;;;;;;;4.37;3.70;;;;;;;10.96;69.87;97508.94;5046154;28;20706;-94
2022/05/01 04:33:20;;;;;;;4.40;3.77;;;;;;;11.16;69.24;97506.38;5045015;28;20656;-95
2022/05/01 04:35:50;;;;;;;4.17;3.70;;;;;;;11.60;70.29;97520.13;5074910;28;20229;-90
2022/05/01 04:38:23;;;;;;;4.97;3.97;;;;;;;11.72;68.99;97542.97;5094721;28;20229;-92
2022/05/01 04:40:55;;;;;;;8.07;3.40;;;;;;;11.82;69.96;97538.22;5094332;28;20585;-93
2022/05/01 04:43:25;;;;;;;6.07;3.70;;;;;;;11.59;69.24;97552.13;5075324;28;20281;-95
2022/05/01 04:45:58;;;;;;;5.57;4.30;;;;;;;11.98;71.21;97549.63;5077000;28;20197;-93
2022/05/01 04:48:27;;;;;;;8.03;5.30;;;;;;;11.54;68.24;97471.06;5082848;28;20196;-93
2022/05/01 04:50:55;;;;;;;5.33;4.20;;;;;;;11.49;69.38;97511.94;5099691;28;20229;-94
2022/05/01 04:53:23;;;;;;;8.70;4.27;;;;;;;11.37;69.76;97504.66;5076905;28;20200;-92
2022/05/01 04:55:52;;;;;;;5.53;4.30;;;;;;;11.92;68.63;97500.59;5074710;28;20225;-91
2022/05/01 04:58:20;;;;;;;5.73;4.53;;;;;;;11.68;67.91;97489.53;5058095;28;20265;-91
2022/05/01 05:00:48;;;;;;;5.33;4.03;;;;;;;12.15;68.62;97527.25;5072521;28;21053;-94
2022/05/01 05:03:16;;;;;;;7.20;4.13;;;;;;;12.72;68.35;97554.94;5089620;28;20278;-92
2022/05/01 05:05:44;;;;;;;5.80;4.00;;;;;;;12.47;65.09;97447.84;5073037;28;20635;-93
2022/05/01 05:10:58;;;;;;;3.93;3.53;;;;;;;12.97;65.00;97476.63;5081057;28;20221;-94
2022/05/01 05:13:27;;;;;;;3.77;3.33;;;;;;;13.49;64.00;97496.63;5076678;28;20293;-93
2022/05/01 05:15:59;;;;;;;4.20;3.80;;;;;;;13.99;63.09;97517.47;5074390;28;20230;-93
2022/05/01 05:18:27;;;;;;;5.17;3.50;;;;;;;14.15;61.86;97552.22;5077206;28;20248;-93
2022/05/01 05:20:56;;;;;;;5.97;3.70;;;;;;;14.35;62.01;97546.84;5077057;28;20190;-93
2022/05/01 05:23:23;;;;;;;4.23;3.60;;;;;;;14.44;61.53;97540.31;5057840;28;20573;-94
2022/05/01 05:25:52;;;;;;;4.87;3.93;;;;;;;14.39;60.72;97532.72;5074858;28;20202;-93
2022/05/01 05:28:19;;;;;;;4.33;3.47;;;;;;;14.50;61.57;97522.59;5078165;28;20216;-92
2022/05/01 05:30:48;;;;;;;5.43;3.97;;;;;;;14.89;61.45;97552.63;5083023;28;20232;-93
2022/05/01 05:33:17;;;;;;;5.20;3.20;;;;;;;14.02;61.05;97444.38;5075096;28;20290;-94
2022/05/01 05:35:45;;;;;;;4.80;2.80;;;;;;;15.04;60.25;97536.13;5058656;28;20217;-94
2022/05/01 05:38:13;;;;;;;4.93;3.60;;;;;;;14.97;59.57;97509.56;5055059;28;20193;-93
2022/05/01 05:40:41;;;;;;;5.77;3.30;;;;;;;14.90;59.49;97473.47;5052706;28;20212;-93
2022/05/01 05:43:09;;;;;;;4.83;3.43;;;;;;;15.32;59.81;97510.16;5036486;28;20200;-94
2022/05/01 05:45:37;;;;;;;3.40;3.10;;;;;;;15.48;58.86;97536.28;5053178;28;20279;-94
2022/05/01 05:48:05;;;;;;;6.23;3.20;;;;;;;14.58;60.59;97486.53;5059742;28;20197;-93
2022/05/01 05:50:32;;;;;;;5.53;3.73;;;;;;;14.33;60.94;97493.97;5057741;28;20204;-93
2022/05/01 05:53:00;;;;;;;4.33;3.53;;;;;;;14.26;62.25;97536.84;5056899;28;20320;-93
2022/05/01 05:55:33;;;;;;;4.97;3.27;;;;;;;14.32;62.94;97489.66;5057465;28;20221;-94
2022/05/01 05:58:02;;;;;;;4.67;3.13;;;;;;;15.27;60.84;97559.19;5057632;28;20257;-94
2022/05/01 06:00:29;;;;;;;6.77;3.10;;;;;;;15.51;59.59;97518.66;5066697;28;20243;-94
2022/05/01 06:02:56;;;;;;;5.07;3.23;;;;;;;15.50;58.70;97493.47;5070239;28;20193;-93
2022/05/01 06:05:24;;;;;;;5.57;3.50;;;;;;;16.17;57.27;97556.50;5054664;28;20189;-92
2022/05/01 06:07:51;;;;;;;8.07;3.83;;;;;;;15.81;56.30;97510.78;5071954;28;20224;-91
2022/05/01 06:10:19;;;;;;;3.53;2.90;;;;;;;16.03;55.92;97514.66;5070834;28;20193;-91
2022/05/01 06:12:48;;;;;;;3.73;2.70;;;;;;;16.37;56.05;97526.53;5056794;28;20227;-91
2022/05/01 06:15:19;;;;;;;6.03;4.57;;;;;;;16.74;56.17;97565.22;5063677;28;20289;-92
2022/05/01 06:17:46;;;;;;;7.57;3.23;;;;;;;16.60;54.31;97525.16;5062457;28;20181;-91
2022/05/01 06:20:14;;;;;;;4.13;2.73;;;;;;;17.07;53.00;97549.19;5061939;28;20190;-96
2022/05/01 06:22:42;;;;;;;3.83;3.20;;;;;;;16.75;50.20;97511.13;5080208;28;20185;-92
2022/05/01 06:25:09;;;;;;;3.77;2.90;;;;;;;16.90;49.73;97507.53;5080064;28;20253;-92
2022/05/01 06:27:38;;;;;;;3.90;3.00;;;;;;;17.03;48.18;97509.28;5079629;28;20185;-91
2022/05/01 06:30:05;;;;;;;3.53;2.73;;;;;;;17.31;47.52;97484.78;5078170;28;20292;-91
2022/05/01 06:32:33;;;;;;;3.97;3.27;;;;;;;17.41;47.30;97492.88;5068419;28;20211;-91
2022/05/01 06:35:02;;;;;;;6.33;2.90;;;;;;;17.78;44.65;97527.03;5077306;28;20221;-90
2022/05/01 06:37:34;;;;;;;6.53;3.30;;;;;;;18.05;44.48;97547.94;5068811;28;20705;-91
2022/05/01 06:40:03;;;;;;;6.77;4.53;;;;;;;17.66;44.36;97501.66;5093155;28;20194;-91
2022/05/01 06:42:32;;;;;;;8.10;3.37;;;;;;;18.26;45.29;97551.72;5058483;28;20294;-91
2022/05/01 06:44:59;;;;;;;4.87;2.97;;;;;;;17.78;44.84;97485.09;5059687;28;20195;-91
2022/05/01 06:47:26;;;;;;;4.90;3.20;;;;;;;18.24;44.85;97547.50;5075300;28;20228;-91
2022/05/01 06:49:55;;;;;;;7.07;3.83;;;;;;;17.92;44.97;97497.28;5075834;28;20667;-91
2022/05/01 06:52:23;;;;;;;3.90;2.57;;;;;;;18.19;44.33;97549.63;5093374;28;20202;-92
2022/05/01 06:54:54;;;;;;;4.97;2.73;;;;;;;18.02;45.53;97539.44;5077020;28;20290;-91
2022/05/01 06:57:22;;;;;;;6.67;2.50;;;;;;;18.32;43.58;97547.84;5058820;28;20598;-91
2022/05/01 06:59:49;;;;;;;5.23;2.50;;;;;;;18.05;41.80;97505.16;5062253;28;20206;-90
2022/05/01 07:02:17;;;;;;;5.27;2.10;;;;;;;18.08;41.25;97524.13;5073995;28;20204;-91
2022/05/01 07:04:46;;;;;;;3.27;2.27;;;;;;;17.48;41.83;97531.66;5113913;28;20282;-93
2022/05/01 07:07:14;;;;;;;4.17;2.43;;;;;;;17.87;42.22;97531.66;5075251;28;20203;-93
2022/05/01 07:09:42;;;;;;;2.40;2.20;;;;;;;18.09;41.51;97531.06;5077321;28;20202;-89
2022/05/01 07:12:11;;;;;;;3.50;2.20;;;;;;;18.28;40.82;97518.38;5111657;28;20206;-93
2022/05/01 07:14:38;;;;;;;2.40;2.20;;;;;;;18.70;40.22;97551.31;5059745;28;20198;-95
2022/05/01 07:17:06;;;;;;;3.03;2.47;;;;;;;18.52;39.46;97526.38;5092598;28;20303;-91
2022/05/01 07:19:34;;;;;;;3.27;2.23;;;;;;;18.71;40.07;97532.00;5074414;28;20200;-93
2022/05/01 07:22:02;;;;;;;4.97;2.73;;;;;;;17.88;40.56;97486.19;5042674;28;20204;-93
2022/05/01 07:24:31;;;;;;;4.27;2.30;;;;;;;17.24;40.89;97496.59;5044740;28;20758;-93
2022/05/01 07:26:58;;;;;;;3.97;2.20;;;;;;;17.44;41.12;97545.88;5055840;28;20208;-94
2022/05/01 07:29:32;;;;;;;2.10;1.90;;;;;;;17.29;40.33;97518.06;5040223;28;20201;-94
2022/05/01 07:31:59;;;;;;;2.73;1.80;;;;;;;17.56;40.38;97515.44;5039294;28;20195;-93
2022/05/01 07:34:31;;;;;;;2.57;2.30;;;;;;;17.37;39.67;97466.03;5057482;28;20640;-93
2022/05/01 07:36:59;;;;;;;3.63;1.90;;;;;;;17.57;40.24;97483.09;5056163;28;20300;-95
2022/05/01 07:39:27;;;;;;;3.57;2.30;;;;;;;18.16;40.62;97547.19;5038516;28;20200;-94
2022/05/01 07:41:56;;;;;;;4.40;2.37;;;;;;;18.24;40.34;97488.06;5056744;28;20293;-94
2022/05/01 07:44:25;;;;;;;2.37;1.83;;;;;;;18.51;38.57;97507.16;5073669;28;20201;-96
2022/05/01 07:46:55;;;;;;;2.20;2.00;;;;;;;18.77;39.33;97549.09;5056011;28;20218;-95
2022/05/01 07:49:23;;;;;;;3.57;1.87;;;;;;;18.53;38.67;97501.78;5055404;28;20191;-94
2022/05/01 07:51:52;;;;;;;3.70;2.37;;;;;;;18.52;38.17;97510.63;5058238;28;20206;-94
2022/05/01 07:54:25;;;;;;;5.03;1.93;;;;;;;18.56;37.47;97543.56;5044474;28;20220;-96
2022/05/01 07:56:56;;;;;;;2.67;1.90;;;;;;;18.35;38.43;97548.47;5045936;28;20326;-96
2022/05/01 07:59:48;;;;;;;3.17;1.80;;;;;;;18.06;37.93;97549.63;5043995;28;20199;-96
2022/05/01 08:02:24;;;;;;;3.33;2.20;;;;;;;17.78;38.69;97532.25;5059471;28;20244;-96
2022/05/01 08:04:51;;;;;;;3.43;2.00;;;;;;;17.47;38.50;97482.00;5054790;28;20290;-95
2022/05/01 08:07:18;;;;;;;2.73;2.10;;;;;;;17.39;39.44;97427.53;5037823;28;20216;-95
2022/05/01 08:09:46;;;;;;;5.87;4.53;;;;;;;17.58;39.35;97459.41;5038259;28;20187;-94
2022/05/01 08:12:15;;;;;;;3.10;2.17;;;;;;;17.52;40.02;97470.31;5037592;28;20265;-93
2022/05/01 08:14:46;;;;;;;2.53;2.07;;;;;;;17.95;39.59;97520.66;5054007;28;20199;-95
2022/05/01 08:17:14;;;;;;;4.90;2.83;;;;;;;18.06;39.35;97497.19;5037952;28;20281;-92
2022/05/01 08:22:27;;;;;;;3.17;2.33;;;;;;;18.06;40.84;97517.31;5055252;28;20253;-94
2022/05/01 08:24:56;;;;;;;4.57;2.40;;;;;;;18.27;39.58;97518.47;5061776;28;20201;-95
2022/05/01 08:27:24;;;;;;;2.63;2.10;;;;;;;18.34;39.48;97532.84;5053592;28;20705;-95
2022/05/01 08:29:53;;;;;;;5.23;2.50;;;;;;;18.41;39.33;97545.44;5053031;28;20726;-95
2022/05/01 08:32:20;;;;;;;4.93;2.63;;;;;;;18.11;39.21;97462.81;5053055;28;20294;-95
2022/05/01 08:34:49;;;;;;;5.13;2.23;;;;;;;17.92;37.68;97441.41;5037401;28;20675;-94
2022/05/01 08:37:16;;;;;;;5.03;2.50;;;;;;;18.51;38.49;97529.91;5051784;28;20227;-94
2022/05/01 10:23:54;;;;;;;1.67;1.50;;;;;;;17.82;37.49;97468.28;1749725;23;20525;-90
2022/05/01 10:26:37;;;;;;;1.90;1.70;;;;;;;17.60;38.18;97446.22;4953944;28;20243;-94
2022/05/01 10:29:36;;;;;;;2.70;2.30;;;;;;;17.85;38.42;97452.31;4941937;28;20208;-94
2022/05/01 10:32:39;;;;;;;1.97;1.73;;;;;;;18.15;36.96;97432.81;4958504;28;20207;-94
2022/05/01 10:35:48;;;;;;;2.33;1.87;;;;;;;18.53;36.39;97450.19;4962972;28;20246;-94
2022/05/01 10:38:40;;;;;;;2.03;1.80;;;;;;;18.22;37.57;97392.09;4978484;28;20205;-94
2022/05/01 10:41:11;;;;;;;3.07;2.10;;;;;;;18.25;36.17;97429.44;4981294;28;20195;-95
2022/05/01 10:43:58;;;;;;;4.53;1.63;;;;;;;18.06;36.41;97388.88;4965914;28;20195;-94
2022/05/01 10:46:26;;;;;;;2.70;1.63;;;;;;;18.15;37.90;97445.91;4975987;28;20202;-96
2022/05/01 10:48:55;;;;;;;4.27;2.00;;;;;;;17.97;36.59;97372.00;4971906;28;20230;-95
2022/05/01 10:51:34;;;;;;;2.40;1.80;;;;;;;18.37;37.57;97448.72;4968340;28;20210;-96
2022/05/01 10:54:14;;;;;;;14.20;1.77;;;;;;;18.57;37.38;97440.28;4974485;28;20219;-93
2022/05/01 10:56:49;;;;;;;4.53;2.33;;;;;;;18.57;37.33;97435.91;4947417;28;20231;-96
2022/05/01 10:59:46;;;;;;;2.40;1.77;;;;;;;18.35;36.43;97413.88;4962297;28;20196;-95
2022/05/01 11:02:25;;;;;;;5.33;2.00;;;;;;;18.44;36.14;97444.75;4960267;28;20202;-95
2022/05/01 11:04:54;;;;;;;3.53;2.13;;;;;;;18.40;36.29;97432.78;4961640;28;20226;-95
2022/05/01 11:07:24;;;;;;;3.93;2.37;;;;;;;18.12;36.85;97364.84;4959206;28;20204;-94
2022/05/01 11:09:51;;;;;;;2.07;1.87;;;;;;;18.27;36.50;97369.88;4958883;28;20210;-96
2022/05/01 11:12:21;;;;;;;3.53;1.50;;;;;;;18.62;35.87;97398.84;4961357;28;20191;-95
2022/05/01 11:14:59;;;;;;;2.70;1.83;;;;;;;18.81;35.74;97422.81;4958756;28;20263;-96
2022/05/01 11:17:50;;;;;;;1.80;1.63;;;;;;;18.26;35.35;97347.19;4962428;28;20234;-96
2022/05/01 11:20:23;;;;;;;4.37;1.63;;;;;;;18.65;36.96;97422.22;4976362;28;20196;-96
2022/05/01 11:22:51;;;;;;;3.47;2.00;;;;;;;18.04;37.48;97340.97;4959183;28;20204;-95
2022/05/01 11:25:31;;;;;;;2.77;1.43;;;;;;;18.45;36.61;97417.56;4959688;28;20270;-95
2022/05/01 11:27:59;;;;;;;2.60;1.73;;;;;;;18.25;36.25;97412.88;4957288;28;20201;-95
2022/05/01 11:30:27;;;;;;;4.23;1.80;;;;;;;18.27;36.96;97426.72;4943283;28;20256;-95
2022/05/01 11:33:11;;;;;;;2.50;1.90;;;;;;;17.93;36.60;97422.16;4959191;28;20230;-95
2022/05/01 11:35:52;;;;;;;2.90;2.20;;;;;;;17.75;37.69;97377.91;4942544;28;20222;-95
2022/05/01 11:38:21;;;;;;;2.50;1.97;;;;;;;17.76;37.58;97384.81;4960136;28;20193;-93
2022/05/01 11:40:53;;;;;;;3.23;2.23;;;;;;;17.85;37.95;97384.19;4958008;28;20197;-94
2022/05/01 11:43:21;;;;;;;2.20;2.00;;;;;;;18.02;37.89;97411.84;4942673;28;20671;-93
2022/05/01 11:45:48;;;;;;;3.13;1.83;;;;;;;17.95;38.08;97397.47;4957792;28;20198;-94
2022/05/01 11:48:20;;;;;;;4.60;1.80;;;;;;;17.70;37.63;97332.84;4958554;28;20254;-95
2022/05/01 11:50:52;;;;;;;4.90;2.07;;;;;;;17.85;37.93;97360.59;4944506;28;20686;-93
2022/05/01 11:53:23;;;;;;;3.00;2.00;;;;;;;18.08;39.15;97379.13;4956947;28;20198;-94
2022/05/01 12:04:29;;;;;;;3.97;2.33;;;;;;;17.72;41.84;97365.00;4958658;28;20202;-95
2022/05/01 12:07:15;;;;;;;9.23;2.27;;;;;;;17.74;41.72;97402.41;4956968;28;20736;-94
2022/05/01 12:09:44;;;;;;;3.73;2.53;;;;;;;17.57;41.99;97384.41;4958445;28;20681;-95
2022/05/01 12:12:16;;;;;;;3.33;2.33;;;;;;;17.35;42.16;97381.53;4945082;28;20220;-96
2022/05/01 12:14:48;;;;;;;4.87;2.03;;;;;;;17.66;41.92;97394.25;4961287;28;20211;-94
2022/05/01 12:17:21;;;;;;;6.10;2.30;;;;;;;17.76;42.02;97395.28;4959034;28;20217;-95
2022/05/01 12:19:54;;;;;;;3.07;2.40;;;;;;;17.14;42.56;97322.78;4926812;28;20198;-92
2022/05/01 12:22:25;;;;;;;2.53;2.30;;;;;;;17.38;42.33;97352.53;4942432;28;20213;-93
2022/05/01 12:24:57;;;;;;;2.93;2.57;;;;;;;16.94;42.70;97286.63;4941782;28;20237;-93
2022/05/01 12:27:26;;;;;;;2.30;2.10;;;;;;;17.43;42.43;97381.88;4956782;28;20244;-95
2022/05/01 12:29:57;;;;;;;2.60;2.10;;;;;;;17.10;41.97;97357.94;4944032;28;20199;-94
2022/05/01 12:32:31;;;;;;;5.87;2.20;;;;;;;16.56;42.11;97277.88;4943165;28;20291;-96
2022/05/01 12:35:01;;;;;;;2.30;1.97;;;;;;;16.65;42.47;97296.41;4941622;28;20289;-94
2022/05/01 12:37:30;;;;;;;2.80;2.17;;;;;;;17.13;42.94;97377.81;4956649;28;20614;-94
2022/05/01 12:40:03;;;;;;;3.83;2.00;;;;;;;17.32;42.99;97373.03;4958043;28;20208;-95
2022/05/01 12:45:48;;;;;;;2.97;2.30;;;;;;;17.03;43.86;97312.19;4956200;28;20647;-95
2022/05/01 12:48:15;;;;;;;2.53;2.30;;;;;;;17.12;43.90;97324.66;4942628;28;20239;-96
2022/05/01 12:50:43;;;;;;;3.87;2.33;;;;;;;16.75;44.12;97275.72;4941059;28;20291;-94
2022/05/01 12:53:35;;;;;;;3.63;2.10;;;;;;;16.99;44.39;97324.66;4942164;28;20229;-95
2022/05/01 12:56:17;;;;;;;2.33;2.07;;;;;;;17.19;43.57;97291.06;4926240;28;20202;-96
2022/05/01 12:58:48;;;;;;;4.93;2.40;;;;;;;17.27;43.42;97278.28;4926110;28;20196;-95
2022/05/01 13:01:23;;;;;;;3.73;2.70;;;;;;;17.24;43.35;97255.78;4957607;28;20198;-95
2022/05/01 13:03:51;;;;;;;5.20;2.80;;;;;;;18.02;43.02;97340.25;4956455;28;20202;-95
2022/05/01 13:06:20;;;;;;;4.67;2.50;;;;;;;17.54;43.51;97258.91;4957913;28;20199;-96
2022/05/01 13:08:51;;;;;;;3.00;2.40;;;;;;;18.08;42.65;97337.19;4956618;28;20657;-91
2022/05/01 13:12:16;;;;;;;3.63;2.20;;;;;;;18.20;43.55;97328.44;4953790;28;20208;-96
2022/05/01 13:15:40;;;;;;;3.10;2.40;;;;;;;17.81;42.29;97241.25;4947970;28;20274;-95
2022/05/01 13:18:29;;;;;;;3.87;3.07;;;;;;;17.91;42.90;97256.31;4943310;28;20259;-95
2022/05/01 13:21:01;;;;;;;6.37;3.67;;;;;;;18.05;42.04;97316.44;4917101;28;20235;-93
2022/05/01 13:23:28;;;;;;;4.50;2.43;;;;;;;17.76;42.92;97300.97;4946793;28;20238;-94
2022/05/01 13:25:56;;;;;;;4.07;2.50;;;;;;;17.85;42.45;97296.88;4937649;28;20713;-95
2022/05/01 13:28:26;;;;;;;2.40;2.10;;;;;;;17.78;42.36;97325.28;4939003;28;20210;-95
2022/05/01 13:30:56;;;;;;;3.70;2.87;;;;;;;17.78;43.27;97335.78;4940762;28;20200;-93
2022/05/01 13:33:24;;;;;;;2.30;2.10;;;;;;;17.38;44.01;97242.56;4945589;28;20194;-94
2022/05/01 13:35:52;;;;;;;6.57;3.27;;;;;;;17.75;44.98;97335.16;4962584;28;20266;-94
2022/05/01 13:38:19;;;;;;;4.17;3.27;;;;;;;17.31;47.77;97314.59;4941508;28;20228;-94
2022/05/01 13:46:18;;;;;;;3.77;2.90;;;;;;;17.51;48.54;97290.56;4956737;28;20297;-96
2022/05/01 13:48:49;;;;;;;4.77;2.73;;;;;;;17.21;49.73;97232.41;4929184;28;20275;-94
2022/05/01 13:51:21;;;;;;;4.30;3.10;;;;;;;17.84;48.55;97314.41;4948631;28;20193;-96
2022/05/01 13:53:53;;;;;;;5.13;2.73;;;;;;;17.60;47.57;97255.84;4982445;28;20219;-94
2022/05/01 13:56:25;;;;;;;4.90;2.80;;;;;;;17.47;47.98;97238.47;4960531;28;20324;-95
2022/05/01 13:58:57;;;;;;;7.60;2.83;;;;;;;17.29;48.55;97217.00;4960498;28;20292;-96
2022/05/01 14:01:25;;;;;;;3.10;2.67;;;;;;;17.12;48.62;97214.75;4956368;28;20206;-94
2022/05/01 14:03:57;;;;;;;4.53;2.73;;;;;;;17.69;49.11;97318.09;4940133;28;20205;-95
2022/05/01 14:06:25;;;;;;;3.07;2.83;;;;;;;17.27;49.26;97245.06;4942711;28;20221;-95
2022/05/01 14:08:55;;;;;;;3.77;2.70;;;;;;;17.71;48.61;97325.84;4960283;28;20218;-96
2022/05/01 14:11:23;;;;;;;4.17;2.83;;;;;;;16.91;49.68;97190.88;4959936;28;20220;-95
2022/05/01 14:13:57;;;;;;;4.23;2.90;;;;;;;17.37;50.21;97261.00;4958714;28;20197;-93